Portada
METAR-TAF:

METAR-TAF

Aeroports :

Matam, Senegal

latitud: 15-39N, longitud: 013-15W, altitud: 15 m

Observació

L'informe es va fer fa 3 hores i 29 minuts, a les 12:00 UTC
Vent 10 kt del Est
Temperatura 35°C
Humitat 13%
Pressió 1014 hPa
Visibilitat: 1500 m
Pols estès

METAR: GOSM 251200Z 08010KT 1500 DU NSC 35/03 Q1014

Hora: 15:29 (15:29 UTC)


TAF: manca

Observacions i pronòstics meteorològics de més de 4000 aeroports (METAR i TAF).

Les estacions disponibles són els punts grocs i vermells al mapa.

Posi el ratolí al punt desitjat per veure el nom de l'estació.

Feu clic per veure les observacions i els pronòstics meteorològics.

Per canviar el mapa: feu clic els botons verds amb una creu de color negre per apropar; al botó verd amb un guió per allunyar la imatge; o en les fletxes verdes per a mapes adjacents.


METAR-TAF: